Time;durP1;ratioP1;P1;durP2;ratioP2;P2;SDS_P1;SDS_P2;PMS_P1;PMS_P2;Temp;Humidity;BMP_temperature;BMP_pressure;BME280_temperature;BME280_humidity;BME280_pressure;Samples;Min_cycle;Max_cycle;Signal;HPM_P1;HPM_P2
2022/03/15 00:00:10;;;;;;;;;15.60;15.60;;;;;;;;5193881;28;8956;-80
2022/03/15 00:02:49;;;;;;;;;14.60;14.40;;;;;;;;5227638;28;8785;-80
2022/03/15 00:05:20;;;;;;;;;10.80;10.40;;;;;;;;5194490;28;8902;-81
2022/03/15 00:07:53;;;;;;;;;16.00;16.00;;;;;;;;5227204;28;8801;-79
2022/03/15 00:10:24;;;;;;;;;10.40;10.00;;;;;;;;5214260;28;9590;-80
2022/03/15 00:12:56;;;;;;;;;16.00;16.00;;;;;;;;5214150;28;8887;-80
2022/03/15 00:15:30;;;;;;;;;15.20;15.20;;;;;;;;5195905;28;8832;-80
2022/03/15 00:18:03;;;;;;;;;10.80;10.80;;;;;;;;5195029;28;8798;-80
2022/03/15 00:20:34;;;;;;;;;19.00;19.00;;;;;;;;5211815;28;8797;-80
2022/03/15 00:23:06;;;;;;;;;10.00;10.00;;;;;;;;5227829;28;8818;-79
2022/03/15 00:25:56;;;;;;;;;19.20;17.60;;;;;;;;5227529;28;8797;-79
2022/03/15 00:28:29;;;;;;;;;15.40;15.20;;;;;;;;5211710;28;8778;-79
2022/03/15 00:31:04;;;;;;;;;12.40;12.40;;;;;;;;5212942;28;8786;-79
2022/03/15 00:33:54;;;;;;;;;15.80;15.80;;;;;;;;5249048;28;8821;-79
2022/03/15 00:36:27;;;;;;;;;13.00;12.60;;;;;;;;5194281;28;8812;-80
2022/03/15 00:39:01;;;;;;;;;17.00;17.00;;;;;;;;5197829;28;8843;-81
2022/03/15 00:41:32;;;;;;;;;17.20;16.00;;;;;;;;5228087;28;8899;-87
2022/03/15 00:44:09;;;;;;;;;9.60;9.60;;;;;;;;5229305;28;8870;-85
2022/03/15 00:46:42;;;;;;;;;2.40;2.40;;;;;;;;5211692;28;8787;-86
2022/03/15 00:49:14;;;;;;;;;19.00;18.80;;;;;;;;5210991;28;8792;-82
2022/03/15 00:51:46;;;;;;;;;18.40;18.40;;;;;;;;5209653;28;8828;-82
2022/03/15 00:54:21;;;;;;;;;9.40;9.00;;;;;;;;5207547;28;8918;-82
2022/03/15 00:56:56;;;;;;;;;11.20;9.80;;;;;;;;5207089;28;8830;-81
2022/03/15 00:59:30;;;;;;;;;12.20;12.20;;;;;;;;5203506;28;8850;-82
2022/03/15 01:02:02;;;;;;;;;15.60;15.60;;;;;;;;5207414;28;8784;-80
2022/03/15 01:04:36;;;;;;;;;18.40;18.40;;;;;;;;5181798;28;8828;-79
2022/03/15 01:07:08;;;;;;;;;13.00;13.00;;;;;;;;5225974;28;8786;-79
2022/03/15 01:09:58;;;;;;;;;11.80;11.80;;;;;;;;5248083;28;8912;-79
2022/03/15 01:12:30;;;;;;;;;16.40;15.80;;;;;;;;5213240;28;8769;-79
2022/03/15 01:15:01;;;;;;;;;15.00;15.00;;;;;;;;5210795;28;8944;-79
2022/03/15 01:17:36;;;;;;;;;11.80;11.80;;;;;;;;5220964;28;9524;-84
2022/03/15 01:20:11;;;;;;;;;9.60;9.60;;;;;;;;5204280;28;8796;-82
2022/03/15 01:23:02;;;;;;;;;6.60;6.60;;;;;;;;5204883;28;9681;-81
2022/03/15 01:25:37;;;;;;;;;19.75;19.50;;;;;;;;5205096;28;8869;-86
2022/03/15 01:28:29;;;;;;;;;9.60;9.00;;;;;;;;5205022;28;8781;-83
2022/03/15 01:31:02;;;;;;;;;14.20;14.20;;;;;;;;5220713;28;8811;-84
2022/03/15 01:33:52;;;;;;;;;12.20;12.20;;;;;;;;5223173;28;8805;-80
2022/03/15 01:36:24;;;;;;;;;13.00;13.00;;;;;;;;5225758;28;8892;-79
2022/03/15 01:39:14;;;;;;;;;15.20;15.00;;;;;;;;5225338;28;8785;-89
2022/03/15 01:41:46;;;;;;;;;16.40;16.40;;;;;;;;5208020;28;9509;-80
2022/03/15 01:44:20;;;;;;;;;17.60;16.80;;;;;;;;5208472;28;8836;-84
2022/03/15 01:46:53;;;;;;;;;15.00;15.00;;;;;;;;5222569;28;8894;-86
2022/03/15 01:49:26;;;;;;;;;21.60;21.20;;;;;;;;5189920;28;8881;-85
2022/03/15 01:51:59;;;;;;;;;15.50;13.00;;;;;;;;5228736;28;8818;-86
2022/03/15 01:54:32;;;;;;;;;20.50;20.50;;;;;;;;5194317;28;8816;-79
2022/03/15 01:57:07;;;;;;;;;20.75;20.00;;;;;;;;5242421;28;8797;-80
2022/03/15 01:59:39;;;;;;;;;13.50;13.25;;;;;;;;5193902;28;8817;-79
2022/03/15 02:02:12;;;;;;;;;22.00;21.25;;;;;;;;5227614;28;8797;-79
2022/03/15 02:04:44;;;;;;;;;25.00;24.25;;;;;;;;5211145;28;8810;-80
2022/03/15 02:07:34;;;;;;;;;29.75;26.00;;;;;;;;5254328;28;9533;-79
2022/03/15 02:10:06;;;;;;;;;24.00;22.50;;;;;;;;5210622;28;8796;-82
2022/03/15 02:12:39;;;;;;;;;15.75;15.75;;;;;;;;5203711;28;8828;-83
2022/03/15 02:15:11;;;;;;;;;18.50;18.50;;;;;;;;5189988;28;8800;-81
2022/03/15 02:17:43;;;;;;;;;19.25;19.25;;;;;;;;5189524;28;8784;-81
2022/03/15 02:20:15;;;;;;;;;12.00;11.50;;;;;;;;5206816;28;8800;-81
2022/03/15 02:22:48;;;;;;;;;24.25;23.50;;;;;;;;5189539;28;8998;-80
2022/03/15 02:25:21;;;;;;;;;14.75;14.75;;;;;;;;5205813;28;8800;-80
2022/03/15 02:27:53;;;;;;;;;30.50;26.50;;;;;;;;5239116;28;9563;-80
2022/03/15 02:30:44;;;;;;;;;14.00;14.00;;;;;;;;5210442;28;9528;-82
2022/03/15 02:33:15;;;;;;;;;40.25;36.50;;;;;;;;5225018;28;8794;-78
2022/03/15 02:35:47;;;;;;;;;26.00;26.00;;;;;;;;5210197;28;8785;-79
2022/03/15 02:38:19;;;;;;;;;17.25;17.25;;;;;;;;5211634;28;8810;-79
2022/03/15 02:40:50;;;;;;;;;22.00;22.00;;;;;;;;5191366;28;8808;-80
2022/03/15 02:43:42;;;;;;;;;19.50;19.50;;;;;;;;5207206;28;8863;-80
2022/03/15 02:46:13;;;;;;;;;27.75;26.00;;;;;;;;5206367;28;8887;-81
2022/03/15 02:48:45;;;;;;;;;69.75;54.50;;;;;;;;5209664;28;8785;-84
2022/03/15 02:51:35;;;;;;;;;105.00;75.75;;;;;;;;5207055;28;8812;-79
2022/03/15 02:54:08;;;;;;;;;38.33;36.00;;;;;;;;5219809;28;11505;-79
2022/03/15 02:56:42;;;;;;;;;46.75;45.50;;;;;;;;5227604;28;9594;-82
2022/03/15 02:59:16;;;;;;;;;31.50;30.50;;;;;;;;5209327;28;8781;-81
2022/03/15 03:01:48;;;;;;;;;35.75;35.75;;;;;;;;5213393;28;8858;-80
2022/03/15 03:04:21;;;;;;;;;24.00;24.00;;;;;;;;5206909;28;8821;-82
2022/03/15 03:06:53;;;;;;;;;30.75;30.75;;;;;;;;5227284;28;8931;-82
2022/03/15 03:09:24;;;;;;;;;23.75;21.25;;;;;;;;5206268;28;8808;-81
2022/03/15 03:11:57;;;;;;;;;36.00;33.00;;;;;;;;5226702;28;8797;-78
2022/03/15 03:14:29;;;;;;;;;21.75;21.75;;;;;;;;5209911;28;8790;-77
2022/03/15 03:17:00;;;;;;;;;34.50;34.50;;;;;;;;5200379;28;8805;-79
2022/03/15 03:19:50;;;;;;;;;23.00;22.50;;;;;;;;5223998;28;8856;-77
2022/03/15 03:22:21;;;;;;;;;26.00;25.50;;;;;;;;5229499;28;8840;-78
2022/03/15 03:24:54;;;;;;;;;14.50;14.50;;;;;;;;5207818;28;8849;-77
2022/03/15 03:27:26;;;;;;;;;28.00;28.00;;;;;;;;5214192;28;8824;-73
2022/03/15 03:29:58;;;;;;;;;26.25;23.75;;;;;;;;5227066;28;8865;-84
2022/03/15 03:32:30;;;;;;;;;20.50;18.75;;;;;;;;5209349;28;8959;-84
2022/03/15 03:35:04;;;;;;;;;39.50;33.50;;;;;;;;5189393;28;8881;-84
2022/03/15 03:37:36;;;;;;;;;28.00;28.00;;;;;;;;5176227;28;8834;-85
2022/03/15 03:40:08;;;;;;;;;16.25;16.25;;;;;;;;5209561;28;8788;-80
2022/03/15 03:42:39;;;;;;;;;22.50;21.50;;;;;;;;5208529;28;8939;-79
2022/03/15 03:45:11;;;;;;;;;12.50;12.50;;;;;;;;5190572;28;8820;-79
2022/03/15 03:48:01;;;;;;;;;22.50;20.00;;;;;;;;5204587;28;8812;-80
2022/03/15 03:50:33;;;;;;;;;14.50;14.50;;;;;;;;5223860;28;8910;-79
2022/03/15 03:53:05;;;;;;;;;16.75;15.00;;;;;;;;5224876;28;8894;-79
2022/03/15 03:55:36;;;;;;;;;22.25;18.50;;;;;;;;5210946;28;8799;-81
2022/03/15 03:58:07;;;;;;;;;18.00;13.50;;;;;;;;5226898;28;8799;-81
2022/03/15 04:00:39;;;;;;;;;15.50;14.50;;;;;;;;5191644;28;8819;-78
2022/03/15 04:03:29;;;;;;;;;15.25;15.00;;;;;;;;5210644;28;8831;-80
2022/03/15 04:06:05;;;;;;;;;10.67;9.67;;;;;;;;5211544;28;8913;-80
2022/03/15 04:08:37;;;;;;;;;18.00;17.00;;;;;;;;5211157;28;8809;-80
2022/03/15 04:11:10;;;;;;;;;20.50;20.50;;;;;;;;5237380;28;8865;-80
2022/03/15 04:13:43;;;;;;;;;21.75;21.75;;;;;;;;5207376;28;8831;-79
2022/03/15 04:16:16;;;;;;;;;71.75;57.75;;;;;;;;5190972;28;8927;-78
2022/03/15 04:18:47;;;;;;;;;31.25;29.75;;;;;;;;5193000;28;8891;-79
2022/03/15 04:21:22;;;;;;;;;22.25;22.25;;;;;;;;5230634;28;8808;-78
2022/03/15 04:23:55;;;;;;;;;27.50;26.50;;;;;;;;5213825;28;8828;-79
2022/03/15 04:26:46;;;;;;;;;75.33;59.33;;;;;;;;5210548;28;8790;-79
2022/03/15 04:29:17;;;;;;;;;17.75;17.75;;;;;;;;5214915;28;10272;-80
2022/03/15 04:31:49;;;;;;;;;18.00;17.50;;;;;;;;5229365;28;8825;-79
2022/03/15 04:34:20;;;;;;;;;12.75;12.75;;;;;;;;5213472;28;8787;-80
2022/03/15 04:36:52;;;;;;;;;13.50;13.50;;;;;;;;5214142;28;8908;-80
2022/03/15 04:39:24;;;;;;;;;14.20;14.20;;;;;;;;5231984;28;8835;-81
2022/03/15 04:41:56;;;;;;;;;16.20;15.00;;;;;;;;5232307;28;8788;-81
2022/03/15 04:44:46;;;;;;;;;14.60;14.20;;;;;;;;5232677;28;8821;-83
2022/03/15 04:47:19;;;;;;;;;8.60;8.60;;;;;;;;5210932;28;8882;-84
2022/03/15 04:49:50;;;;;;;;;3.00;3.00;;;;;;;;5212476;28;8794;-83
2022/03/15 04:52:40;;;;;;;;;13.20;13.20;;;;;;;;5230658;28;9619;-84
2022/03/15 04:55:12;;;;;;;;;14.20;13.20;;;;;;;;5231293;28;8790;-84
2022/03/15 04:57:44;;;;;;;;;12.80;12.80;;;;;;;;5197679;28;8786;-83
2022/03/15 05:00:16;;;;;;;;;10.40;10.40;;;;;;;;5213484;28;9521;-82
2022/03/15 05:02:47;;;;;;;;;5.40;4.80;;;;;;;;5229298;28;8859;-80
2022/03/15 05:05:37;;;;;;;;;13.20;13.20;;;;;;;;5230491;28;8798;-79
2022/03/15 05:08:08;;;;;;;;;16.00;14.80;;;;;;;;5212130;28;8793;-77
2022/03/15 05:13:29;;;;;;;;;20.20;20.20;;;;;;;;5229932;28;8901;-78
2022/03/15 05:16:01;;;;;;;;;12.80;12.80;;;;;;;;5205238;28;8812;-78
2022/03/15 05:18:54;;;;;;;;;19.00;18.50;;;;;;;;5221872;28;8874;-80
2022/03/15 05:21:26;;;;;;;;;25.25;23.00;;;;;;;;5189374;28;8812;-78
2022/03/15 05:24:16;;;;;;;;;9.20;9.20;;;;;;;;5227147;28;8887;-82
2022/03/15 05:26:47;;;;;;;;;13.00;13.00;;;;;;;;5226166;28;8805;-83
2022/03/15 05:29:18;;;;;;;;;15.80;15.80;;;;;;;;5203423;28;8827;-81
2022/03/15 05:32:07;;;;;;;;;9.00;9.00;;;;;;;;5207971;28;8808;-82
2022/03/15 05:34:38;;;;;;;;;48.67;35.67;;;;;;;;5238121;28;8816;-87
2022/03/15 05:37:28;;;;;;;;;8.20;6.60;;;;;;;;5233701;28;12312;-86
2022/03/15 05:40:00;;;;;;;;;18.40;18.40;;;;;;;;5205614;28;9249;-73
2022/03/15 05:42:50;;;;;;;;;10.80;10.80;;;;;;;;5205802;28;8838;-78
2022/03/15 05:45:22;;;;;;;;;19.60;19.60;;;;;;;;5232828;28;9544;-77
2022/03/15 05:47:54;;;;;;;;;22.80;22.20;;;;;;;;5207030;28;8802;-77
2022/03/15 05:50:25;;;;;;;;;22.80;21.40;;;;;;;;5207729;28;8810;-76
2022/03/15 05:52:57;;;;;;;;;38.75;35.25;;;;;;;;5224189;28;9711;-76
2022/03/15 05:55:28;;;;;;;;;31.80;31.40;;;;;;;;5224029;28;9536;-75
2022/03/15 05:58:00;;;;;;;;;20.00;19.80;;;;;;;;5207413;28;8803;-76
2022/03/15 06:00:32;;;;;;;;;64.75;56.00;;;;;;;;5224900;28;8804;-77
2022/03/15 06:03:03;;;;;;;;;63.50;51.50;;;;;;;;5241047;28;9610;-76
2022/03/15 06:05:35;;;;;;;;;51.50;45.75;;;;;;;;5247100;28;8902;-78
2022/03/15 06:08:08;;;;;;;;;45.50;42.75;;;;;;;;5229632;28;8794;-78
2022/03/15 06:10:39;;;;;;;;;14.60;14.60;;;;;;;;5247988;28;8879;-76
2022/03/15 06:13:10;;;;;;;;;26.20;24.80;;;;;;;;5250381;28;8953;-75
2022/03/15 06:15:41;;;;;;;;;25.40;25.40;;;;;;;;5215211;28;8913;-77
2022/03/15 06:18:12;;;;;;;;;34.00;31.00;;;;;;;;5231454;28;8812;-76
2022/03/15 06:20:45;;;;;;;;;28.40;27.80;;;;;;;;5213810;28;8810;-76
2022/03/15 06:23:22;;;;;;;;;29.00;28.40;;;;;;;;5197593;28;8948;-75
2022/03/15 06:25:53;;;;;;;;;25.60;24.00;;;;;;;;5230612;28;8781;-75
2022/03/15 06:28:43;;;;;;;;;31.50;31.25;;;;;;;;5229623;28;8802;-75
2022/03/15 06:31:14;;;;;;;;;27.75;27.75;;;;;;;;5196366;28;8786;-76
2022/03/15 06:33:46;;;;;;;;;22.40;22.00;;;;;;;;5230308;28;8820;-76
2022/03/15 06:36:17;;;;;;;;;21.00;20.20;;;;;;;;5232122;28;8880;-76
2022/03/15 06:38:49;;;;;;;;;27.60;27.60;;;;;;;;5235536;28;8859;-77
2022/03/15 06:41:20;;;;;;;;;23.40;23.00;;;;;;;;5215167;28;9548;-76
2022/03/15 06:43:52;;;;;;;;;15.20;15.20;;;;;;;;5212372;28;8810;-76
2022/03/15 06:46:41;;;;;;;;;17.20;15.40;;;;;;;;5210600;28;8862;-76
2022/03/15 06:49:13;;;;;;;;;18.00;16.40;;;;;;;;5208542;28;8922;-76
2022/03/15 06:51:45;;;;;;;;;15.20;15.20;;;;;;;;5211802;28;8789;-76
2022/03/15 06:54:16;;;;;;;;;21.60;21.60;;;;;;;;5240251;28;8809;-79
2022/03/15 06:57:06;;;;;;;;;23.40;22.40;;;;;;;;5218231;28;8786;-77
2022/03/15 06:59:37;;;;;;;;;14.40;13.40;;;;;;;;5214447;28;8948;-75
2022/03/15 07:02:11;;;;;;;;;4.20;4.20;;;;;;;;5214224;28;8804;-77
2022/03/15 07:04:43;;;;;;;;;10.80;10.80;;;;;;;;5212563;28;8925;-75
2022/03/15 07:07:15;;;;;;;;;21.60;21.60;;;;;;;;5234046;28;8818;-75
2022/03/15 07:09:46;;;;;;;;;20.20;19.80;;;;;;;;5244285;28;8794;-75
2022/03/15 07:12:17;;;;;;;;;11.00;11.00;;;;;;;;5216209;28;8801;-76
2022/03/15 07:14:49;;;;;;;;;11.20;10.00;;;;;;;;5225716;28;9570;-76
2022/03/15 07:17:21;;;;;;;;;6.20;4.80;;;;;;;;5249841;28;8831;-76
2022/03/15 07:19:52;;;;;;;;;15.00;14.60;;;;;;;;5215380;28;8805;-76
2022/03/15 07:22:24;;;;;;;;;27.60;26.60;;;;;;;;5206987;28;8814;-76
2022/03/15 07:24:55;;;;;;;;;16.40;15.20;;;;;;;;5238217;28;8806;-76
2022/03/15 07:27:27;;;;;;;;;26.40;25.60;;;;;;;;5243115;28;8781;-76
2022/03/15 07:29:58;;;;;;;;;3.40;3.40;;;;;;;;5226983;28;8790;-77
2022/03/15 07:32:29;;;;;;;;;10.00;10.00;;;;;;;;5243457;28;8796;-77
2022/03/15 07:35:00;;;;;;;;;23.60;21.00;;;;;;;;5244850;28;8932;-76
2022/03/15 07:37:31;;;;;;;;;27.60;25.00;;;;;;;;5242454;28;8805;-76
2022/03/15 07:40:03;;;;;;;;;25.00;22.20;;;;;;;;5225927;28;8797;-77
2022/03/15 07:42:34;;;;;;;;;7.80;7.40;;;;;;;;5225827;28;8805;-77
2022/03/15 07:45:06;;;;;;;;;21.40;19.80;;;;;;;;5225258;28;8813;-77
2022/03/15 07:47:37;;;;;;;;;27.20;25.80;;;;;;;;5227856;28;8777;-78
2022/03/15 07:50:08;;;;;;;;;6.60;6.60;;;;;;;;5222526;28;8766;-76
2022/03/15 07:52:39;;;;;;;;;6.00;6.00;;;;;;;;5239814;28;8782;-76
2022/03/15 07:55:12;;;;;;;;;19.40;16.80;;;;;;;;5240652;28;8828;-76
2022/03/15 07:57:43;;;;;;;;;16.40;15.60;;;;;;;;5244614;28;8786;-76
2022/03/15 08:00:15;;;;;;;;;13.80;13.40;;;;;;;;5247282;28;8782;-76
2022/03/15 08:03:04;;;;;;;;;15.00;14.60;;;;;;;;5262091;28;8805;-76
2022/03/15 08:05:35;;;;;;;;;7.00;7.00;;;;;;;;5245366;28;8795;-75
2022/03/15 08:08:07;;;;;;;;;8.80;8.80;;;;;;;;5246390;28;8785;-77
2022/03/15 08:10:38;;;;;;;;;9.80;9.80;;;;;;;;5225136;28;8808;-76
2022/03/15 08:13:10;;;;;;;;;10.00;9.40;;;;;;;;5224738;28;8793;-76
2022/03/15 08:15:40;;;;;;;;;11.40;10.60;;;;;;;;5241853;28;8861;-76
2022/03/15 08:18:12;;;;;;;;;9.00;9.00;;;;;;;;5243347;28;8790;-76
2022/03/15 08:20:43;;;;;;;;;6.60;5.40;;;;;;;;5242021;28;10833;-76
2022/03/15 08:23:17;;;;;;;;;11.00;11.00;;;;;;;;5230309;28;8827;-76
2022/03/15 08:25:48;;;;;;;;;23.60;23.60;;;;;;;;5243991;28;11405;-78
2022/03/15 08:28:19;;;;;;;;;16.00;16.00;;;;;;;;5221420;28;8804;-74
2022/03/15 08:31:08;;;;;;;;;12.20;10.40;;;;;;;;5227204;28;12235;-70
2022/03/15 08:33:39;;;;;;;;;6.60;6.60;;;;;;;;5237303;28;8893;-70
2022/03/15 08:36:11;;;;;;;;;7.40;7.40;;;;;;;;5226197;28;8808;-79
2022/03/15 08:38:42;;;;;;;;;15.00;14.60;;;;;;;;5227041;28;8790;-79
2022/03/15 08:41:13;;;;;;;;;4.40;4.40;;;;;;;;5240843;28;8809;-79
2022/03/15 08:43:44;;;;;;;;;5.20;3.60;;;;;;;;5204225;28;8811;-79
2022/03/15 08:46:15;;;;;;;;;9.20;9.20;;;;;;;;5233900;28;8790;-78
2022/03/15 08:48:46;;;;;;;;;11.60;11.20;;;;;;;;5245243;28;8952;-78
2022/03/15 08:51:17;;;;;;;;;15.20;15.20;;;;;;;;5214786;28;8790;-78
2022/03/15 08:53:48;;;;;;;;;13.80;13.40;;;;;;;;5227972;28;8797;-79
2022/03/15 08:56:21;;;;;;;;;5.80;5.80;;;;;;;;5231743;28;8806;-77
2022/03/15 08:58:52;;;;;;;;;15.00;15.00;;;;;;;;5250934;28;8794;-76
2022/03/15 09:01:41;;;;;;;;;7.00;7.00;;;;;;;;5212905;28;8778;-78
2022/03/15 09:04:12;;;;;;;;;1.00;1.00;;;;;;;;5227274;28;8825;-77
2022/03/15 09:06:44;;;;;;;;;1.00;1.00;;;;;;;;5241647;28;8770;-76
2022/03/15 09:09:18;;;;;;;;;0.40;0.40;;;;;;;;5207949;28;8970;-77
2022/03/15 09:12:08;;;;;;;;;11.20;11.20;;;;;;;;5224996;28;8808;-75
2022/03/15 09:14:39;;;;;;;;;6.80;6.20;;;;;;;;5208214;28;8928;-78
2022/03/15 09:17:28;;;;;;;;;9.20;9.20;;;;;;;;5224423;28;8903;-75
2022/03/15 09:19:59;;;;;;;;;7.00;7.00;;;;;;;;5191958;28;8790;-76
2022/03/15 09:22:30;;;;;;;;;26.25;25.75;;;;;;;;5207920;28;11478;-75
2022/03/15 09:25:20;;;;;;;;;6.80;6.80;;;;;;;;5210365;28;9929;-76
2022/03/15 09:27:50;;;;;;;;;9.20;9.20;;;;;;;;5207818;28;9034;-76
2022/03/15 09:30:22;;;;;;;;;3.20;3.20;;;;;;;;5226266;28;9508;-77
2022/03/15 09:32:53;;;;;;;;;2.40;1.20;;;;;;;;5224090;28;8794;-77
2022/03/15 09:35:24;;;;;;;;;4.50;4.50;;;;;;;;5207980;28;8809;-76
2022/03/15 09:37:55;;;;;;;;;10.00;9.00;;;;;;;;5208018;28;10084;-76
2022/03/15 09:40:26;;;;;;;;;1.00;1.00;;;;;;;;5207644;28;8796;-77
2022/03/15 09:43:00;;;;;;;;;20.40;20.40;;;;;;;;5207743;28;8836;-76
2022/03/15 09:45:50;;;;;;;;;8.20;8.20;;;;;;;;5225716;28;9568;-76
2022/03/15 09:48:22;;;;;;;;;6.00;6.00;;;;;;;;5206942;28;8782;-77
2022/03/15 09:50:53;;;;;;;;;15.60;14.80;;;;;;;;5207458;28;8924;-76
2022/03/15 09:53:25;;;;;;;;;11.50;11.50;;;;;;;;5224094;28;8987;-76
2022/03/15 09:55:56;;;;;;;;;7.80;7.80;;;;;;;;5207981;28;10730;-77
2022/03/15 09:58:27;;;;;;;;;10.80;10.00;;;;;;;;5207633;28;8782;-77
2022/03/15 10:00:58;;;;;;;;;7.60;7.60;;;;;;;;5224439;28;8786;-77
2022/03/15 10:03:30;;;;;;;;;47.80;45.60;;;;;;;;5224535;28;8854;-77
2022/03/15 10:06:21;;;;;;;;;6.80;6.80;;;;;;;;5224689;28;8846;-77
2022/03/15 10:08:52;;;;;;;;;14.60;14.60;;;;;;;;5208859;28;8789;-77
2022/03/15 10:11:24;;;;;;;;;24.00;23.20;;;;;;;;5225233;28;8809;-76
2022/03/15 10:13:55;;;;;;;;;21.40;18.40;;;;;;;;5225014;28;8802;-77
2022/03/15 10:16:31;;;;;;;;;16.00;15.00;;;;;;;;5208649;28;8785;-77
2022/03/15 10:19:21;;;;;;;;;2.20;2.20;;;;;;;;5224287;28;8847;-76
2022/03/15 10:21:54;;;;;;;;;7.20;7.20;;;;;;;;5207219;28;8809;-76
2022/03/15 10:24:26;;;;;;;;;6.00;6.00;;;;;;;;5225097;28;8817;-76
2022/03/15 10:26:59;;;;;;;;;3.40;3.40;;;;;;;;5207647;28;8810;-76
2022/03/15 10:29:31;;;;;;;;;9.20;8.80;;;;;;;;5207775;28;8814;-76
2022/03/15 10:32:21;;;;;;;;;6.20;5.00;;;;;;;;5209940;28;8817;-77
2022/03/15 10:34:52;;;;;;;;;101.20;75.00;;;;;;;;5224938;28;8805;-75
2022/03/15 10:37:32;;;;;;;;;17.60;17.60;;;;;;;;5224288;28;8778;-76
2022/03/15 10:40:41;;;;;;;;;7.00;6.20;;;;;;;;5209952;28;8770;-76
2022/03/15 10:43:15;;;;;;;;;4.00;4.00;;;;;;;;5207407;28;8904;-76
2022/03/15 10:45:55;;;;;;;;;4.00;4.00;;;;;;;;5224002;28;8800;-77
2022/03/15 10:48:29;;;;;;;;;3.60;3.60;;;;;;;;5225177;28;8785;-77
2022/03/15 10:51:02;;;;;;;;;10.40;9.60;;;;;;;;5207189;28;8774;-76
2022/03/15 10:53:41;;;;;;;;;5.40;5.00;;;;;;;;5223484;28;8790;-75
2022/03/15 10:56:12;;;;;;;;;7.60;7.60;;;;;;;;5207268;28;8809;-76
2022/03/15 10:59:03;;;;;;;;;4.20;4.20;;;;;;;;5224524;28;8825;-75
2022/03/15 11:01:39;;;;;;;;;4.00;4.00;;;;;;;;5210453;28;8924;-76
2022/03/15 11:04:11;;;;;;;;;4.60;4.60;;;;;;;;5227531;28;8816;-76
2022/03/15 11:06:44;;;;;;;;;5.00;5.00;;;;;;;;5210855;28;8788;-76
2022/03/15 11:09:22;;;;;;;;;7.00;7.00;;;;;;;;5210642;28;9198;-76
2022/03/15 11:11:54;;;;;;;;;10.20;10.20;;;;;;;;5210657;28;8841;-77
2022/03/15 11:14:44;;;;;;;;;9.20;9.20;;;;;;;;5210102;28;8883;-76
2022/03/15 11:17:34;;;;;;;;;10.40;10.40;;;;;;;;5213225;28;8770;-78
2022/03/15 11:20:07;;;;;;;;;10.00;10.00;;;;;;;;5210377;28;8799;-78
2022/03/15 11:22:38;;;;;;;;;7.00;7.00;;;;;;;;5227102;28;9540;-76
2022/03/15 11:25:20;;;;;;;;;3.80;3.80;;;;;;;;5210145;28;8833;-77
2022/03/15 11:27:51;;;;;;;;;7.40;7.40;;;;;;;;5210426;28;9634;-77
2022/03/15 11:30:26;;;;;;;;;3.20;3.20;;;;;;;;5228108;28;9517;-77
2022/03/15 11:32:57;;;;;;;;;4.60;4.60;;;;;;;;5224775;28;8888;-76
2022/03/15 11:35:31;;;;;;;;;3.60;3.60;;;;;;;;5204622;28;8830;-76
2022/03/15 11:38:04;;;;;;;;;4.00;4.00;;;;;;;;5187899;28;8840;-77
2022/03/15 11:40:36;;;;;;;;;2.00;2.00;;;;;;;;5203915;28;8831;-77
2022/03/15 11:43:37;;;;;;;;;3.00;3.00;;;;;;;;5237206;28;8818;-78
2022/03/15 11:46:16;;;;;;;;;1.00;1.00;;;;;;;;5187876;28;8831;-77
2022/03/15 11:48:55;;;;;;;;;2.40;2.40;;;;;;;;5223942;28;8821;-76
2022/03/15 11:51:34;;;;;;;;;1.00;1.00;;;;;;;;5224632;28;8847;-79
2022/03/15 11:54:09;;;;;;;;;4.20;4.00;;;;;;;;5222616;28;8870;-77
2022/03/15 11:56:48;;;;;;;;;3.20;3.20;;;;;;;;5226023;28;8813;-77
2022/03/15 11:59:19;;;;;;;;;2.20;2.20;;;;;;;;5226657;28;9002;-76
2022/03/15 12:01:51;;;;;;;;;2.20;2.20;;;;;;;;5226886;28;8806;-76
2022/03/15 12:04:44;;;;;;;;;1.80;1.80;;;;;;;;5212183;28;8836;-77
2022/03/15 12:07:16;;;;;;;;;3.20;2.40;;;;;;;;5225906;28;9508;-77
2022/03/15 12:09:48;;;;;;;;;3.60;3.60;;;;;;;;5225505;28;8798;-77
2022/03/15 12:12:29;;;;;;;;;12.20;10.60;;;;;;;;5242558;28;8782;-73
2022/03/15 12:15:22;;;;;;;;;7.00;7.00;;;;;;;;5239945;28;8790;-76
2022/03/15 12:18:04;;;;;;;;;23.20;23.20;;;;;;;;5208942;28;8786;-77
2022/03/15 12:20:46;;;;;;;;;11.40;11.40;;;;;;;;5258391;28;8790;-76
2022/03/15 12:23:26;;;;;;;;;11.80;11.80;;;;;;;;5204786;28;8855;-76
2022/03/15 12:25:57;;;;;;;;;3.20;3.20;;;;;;;;5222096;28;9517;-76
2022/03/15 12:28:29;;;;;;;;;4.00;4.00;;;;;;;;5188687;28;8870;-76
2022/03/15 12:31:07;;;;;;;;;1.00;1.00;;;;;;;;5206087;28;8785;-77
2022/03/15 12:33:39;;;;;;;;;0.20;0.20;;;;;;;;5189058;28;8780;-77
2022/03/15 12:36:36;;;;;;;;;4.40;4.00;;;;;;;;5207501;28;8842;-78
2022/03/15 12:39:09;;;;;;;;;4.00;4.00;;;;;;;;5195556;28;9515;-76
2022/03/15 12:41:41;;;;;;;;;4.20;4.00;;;;;;;;5236157;28;8793;-76
2022/03/15 12:44:12;;;;;;;;;5.60;5.60;;;;;;;;5210146;28;8957;-76
2022/03/15 12:46:43;;;;;;;;;10.00;10.00;;;;;;;;5244406;28;8788;-76
2022/03/15 12:49:18;;;;;;;;;2.20;2.20;;;;;;;;5189002;28;8784;-76
2022/03/15 12:51:51;;;;;;;;;8.00;8.00;;;;;;;;5221703;28;8773;-76
2022/03/15 12:54:25;;;;;;;;;1.00;1.00;;;;;;;;5238320;28;8959;-76
2022/03/15 12:57:06;;;;;;;;;28.60;28.60;;;;;;;;5204829;28;8796;-76
2022/03/15 12:59:38;;;;;;;;;51.00;47.40;;;;;;;;5205154;28;9538;-76
2022/03/15 13:02:16;;;;;;;;;19.80;19.80;;;;;;;;5225960;28;8784;-76
2022/03/15 13:04:47;;;;;;;;;46.80;43.80;;;;;;;;5208796;28;8902;-76
2022/03/15 13:07:28;;;;;;;;;13.00;13.00;;;;;;;;5224816;28;8770;-75
2022/03/15 13:10:28;;;;;;;;;6.00;6.00;;;;;;;;5210782;28;8798;-77
2022/03/15 13:13:00;;;;;;;;;9.60;9.60;;;;;;;;5192049;28;8781;-77
2022/03/15 13:15:31;;;;;;;;;4.40;3.80;;;;;;;;5225102;28;8825;-77
2022/03/15 13:18:03;;;;;;;;;6.25;6.25;;;;;;;;5224883;28;8789;-75
2022/03/15 13:20:34;;;;;;;;;1.20;1.20;;;;;;;;5189932;28;9160;-75
2022/03/15 13:23:06;;;;;;;;;4.60;4.60;;;;;;;;5206864;28;8932;-75
2022/03/15 13:25:46;;;;;;;;;10.80;10.40;;;;;;;;5223617;28;8840;-76
2022/03/15 13:28:24;;;;;;;;;5.40;5.40;;;;;;;;5208178;28;8789;-78
2022/03/15 13:30:57;;;;;;;;;6.00;6.00;;;;;;;;5224960;28;8790;-79
2022/03/15 13:33:30;;;;;;;;;9.40;8.60;;;;;;;;5208449;28;8790;-74
2022/03/15 13:36:13;;;;;;;;;12.00;12.00;;;;;;;;5224440;28;9598;-74
2022/03/15 13:39:03;;;;;;;;;20.80;20.80;;;;;;;;5208042;28;8793;-75
2022/03/15 13:41:41;;;;;;;;;4.40;4.00;;;;;;;;5208004;28;8801;-75
2022/03/15 13:44:15;;;;;;;;;6.00;5.60;;;;;;;;5207331;28;8806;-77
2022/03/15 13:46:48;;;;;;;;;22.20;21.60;;;;;;;;5226426;28;8817;-77
2022/03/15 13:49:23;;;;;;;;;9.00;9.00;;;;;;;;5228486;28;8794;-78
2022/03/15 13:52:05;;;;;;;;;4.60;4.60;;;;;;;;5228411;28;8798;-77
2022/03/15 13:54:50;;;;;;;;;10.40;9.00;;;;;;;;5228036;28;8759;-77
2022/03/15 13:57:25;;;;;;;;;4.20;4.20;;;;;;;;5212334;28;9564;-76
2022/03/15 14:00:05;;;;;;;;;1.00;1.00;;;;;;;;5235218;28;8798;-76
2022/03/15 14:02:46;;;;;;;;;7.40;7.40;;;;;;;;5241915;28;8778;-76
2022/03/15 14:05:20;;;;;;;;;3.60;3.60;;;;;;;;5218865;28;8910;-76
2022/03/15 14:08:05;;;;;;;;;3.00;3.00;;;;;;;;5187664;28;8781;-75
2022/03/15 14:10:36;;;;;;;;;3.00;3.00;;;;;;;;5187193;28;9782;-75
2022/03/15 14:13:19;;;;;;;;;0.80;0.80;;;;;;;;5203352;28;8908;-76
2022/03/15 14:15:53;;;;;;;;;3.00;3.00;;;;;;;;5186841;28;8792;-76
2022/03/15 14:18:25;;;;;;;;;5.20;5.20;;;;;;;;5187546;28;8780;-76
2022/03/15 14:21:21;;;;;;;;;52.60;47.80;;;;;;;;5223896;28;8886;-75
2022/03/15 14:23:56;;;;;;;;;3.80;2.60;;;;;;;;5233609;28;8816;-75
2022/03/15 14:26:28;;;;;;;;;16.00;14.60;;;;;;;;5204910;28;8889;-75
2022/03/15 14:29:09;;;;;;;;;13.00;12.20;;;;;;;;5203392;28;8795;-75
2022/03/15 14:31:43;;;;;;;;;7.80;7.80;;;;;;;;5242284;28;8899;-75
2022/03/15 14:34:14;;;;;;;;;6.00;6.00;;;;;;;;5208091;28;8798;-75
2022/03/15 14:36:45;;;;;;;;;7.80;7.80;;;;;;;;5225711;28;8805;-74
2022/03/15 14:39:19;;;;;;;;;10.50;10.50;;;;;;;;5214645;28;8804;-76
2022/03/15 14:41:50;;;;;;;;;9.00;7.40;;;;;;;;5189016;28;8784;-76
2022/03/15 14:44:22;;;;;;;;;6.20;6.00;;;;;;;;5202104;28;9600;-76
2022/03/15 14:46:54;;;;;;;;;4.80;4.80;;;;;;;;5245983;28;8819;-76
2022/03/15 14:49:25;;;;;;;;;9.40;9.40;;;;;;;;5246691;28;9493;-76
2022/03/15 14:51:58;;;;;;;;;6.80;6.80;;;;;;;;5245624;28;9489;-76
2022/03/15 14:54:48;;;;;;;;;6.60;6.60;;;;;;;;5239424;28;8805;-77
2022/03/15 14:57:23;;;;;;;;;7.40;5.60;;;;;;;;5258832;28;8793;-76
2022/03/15 14:59:55;;;;;;;;;7.80;7.80;;;;;;;;5204852;28;8835;-76
2022/03/15 15:02:29;;;;;;;;;7.80;7.80;;;;;;;;5206212;28;8804;-78
2022/03/15 15:05:01;;;;;;;;;21.40;21.20;;;;;;;;5208923;28;8825;-74
2022/03/15 15:07:35;;;;;;;;;5.60;5.60;;;;;;;;5208635;28;8805;-74
2022/03/15 15:10:25;;;;;;;;;14.80;13.20;;;;;;;;5225387;28;8875;-75
2022/03/15 15:12:56;;;;;;;;;16.50;13.50;;;;;;;;5225136;28;8806;-76
2022/03/15 15:15:27;;;;;;;;;18.40;18.40;;;;;;;;5208673;28;8809;-77
2022/03/15 15:17:58;;;;;;;;;4.40;4.40;;;;;;;;5208445;28;8844;-77
2022/03/15 15:20:30;;;;;;;;;16.25;15.50;;;;;;;;5225926;28;8782;-75
2022/03/15 15:23:01;;;;;;;;;12.60;12.60;;;;;;;;5187730;28;12468;-76
2022/03/15 15:25:32;;;;;;;;;14.00;14.00;;;;;;;;5221154;28;8828;-75
2022/03/15 15:28:03;;;;;;;;;14.60;14.60;;;;;;;;5220989;28;11684;-76